Wetterdaten: Woche 19.07.10 - 25.07.10 (KW29)
Datum Zeit Temp. Innen Temp. Aussen UV X Diff Temp. Feuchte Inne Feuchte Auss Sonnenschein Luftdruck Regen ab 0,1 Wind Sonnenschein Windben
19.07.2010 00:00 25,0 C 16,1 C 0,0 UV-I 0,0 C 44 % 71 % 0 % 1028,8 hPa 0,0 l/m 0,0 km/h (0 Bft) 0,00 h 0,0 km/h (0 Bft)
19.07.2010 01:00 24,5 C 15,0 C 0,0 UV-I 0,0 C 46 % 76 % 0 % 1028,5 hPa 0,0 l/m 0,0 km/h (0 Bft) 0,00 h 0,0 km/h (0 Bft)
19.07.2010 02:00 24,1 C 14,4 C 0,0 UV-I 0,0 C 47 % 79 % 0 % 1028,1 hPa 0,0 l/m 0,0 km/h (0 Bft) 0,00 h 0,0 km/h (0 Bft)
19.07.2010 03:00 23,8 C 13,9 C 0,0 UV-I 0,0 C 48 % 82 % 0 % 1027,5 hPa 0,0 l/m 0,0 km/h (0 Bft) 0,00 h 0,0 km/h (0 Bft)
19.07.2010 04:00 23,4 C 13,3 C 0,0 UV-I 0,0 C 49 % 84 % 0 % 1027,4 hPa 0,0 l/m 0,0 km/h (0 Bft) 0,00 h 0,0 km/h (0 Bft)
19.07.2010 05:00 23,2 C 12,8 C 0,0 UV-I 0,0 C 49 % 86 % 0 % 1027,2 hPa 0,0 l/m 0,0 km/h (0 Bft) 0,00 h 0,0 km/h (0 Bft)
19.07.2010 06:00 23,1 C 12,7 C 0,0 UV-I 0,0 C 50 % 88 % 0 % 1027,2 hPa 0,0 l/m 0,0 km/h (0 Bft) 0,00 h 0,0 km/h (0 Bft)
19.07.2010 07:00 23,2 C 14,1 C 1,2 UV-I 0,1 C 50 % 86 % 4 % 1027,1 hPa 0,0 l/m 1,5 km/h (1 Bft) 0,00 h 1,9 km/h (1 Bft)
19.07.2010 08:00 23,2 C 17,4 C 3,0 UV-I 4,6 C 51 % 75 % 80 % 1027,3 hPa 0,0 l/m 4,1 km/h (1 Bft) 0,53 h 5,2 km/h (1 Bft)
19.07.2010 09:00 23,5 C 20,7 C 10,4 UV-I 6,6 C 50 % 64 % 100 % 1027,4 hPa 0,0 l/m 3,0 km/h (1 Bft) 1,00 h 6,0 km/h (2 Bft)
19.07.2010 10:00 23,7 C 23,4 C 16,4 UV-I 6,4 C 50 % 54 % 100 % 1027,4 hPa 0,0 l/m 3,6 km/h (1 Bft) 1,00 h 6,2 km/h (2 Bft)
19.07.2010 11:00 24,0 C 25,6 C 14,7 UV-I 5,7 C 48 % 44 % 100 % 1027,1 hPa 0,0 l/m 4,8 km/h (1 Bft) 1,00 h 7,3 km/h (2 Bft)
19.07.2010 12:00 24,4 C 26,9 C 9,4 UV-I 5,1 C 47 % 40 % 100 % 1026,8 hPa 0,0 l/m 5,5 km/h (1 Bft) 0,93 h 7,9 km/h (2 Bft)
19.07.2010 13:00 25,1 C 28,1 C 8,6 UV-I 4,9 C 46 % 35 % 100 % 1026,3 hPa 0,0 l/m 4,7 km/h (1 Bft) 0,90 h 7,9 km/h (2 Bft)
19.07.2010 14:00 26,4 C 29,4 C 8,7 UV-I 4,5 C 43 % 31 % 100 % 1026,3 hPa 0,0 l/m 4,4 km/h (1 Bft) 0,97 h 7,7 km/h (2 Bft)
19.07.2010 15:00 28,3 C 30,2 C 9,5 UV-I 4,3 C 39 % 27 % 100 % 1027,6 hPa 0,0 l/m 5,3 km/h (1 Bft) 0,97 h 7,7 km/h (2 Bft)
19.07.2010 16:00 29,9 C 30,6 C 12,0 UV-I 4,3 C 36 % 24 % 100 % 1028,5 hPa 0,0 l/m 5,0 km/h (1 Bft) 0,93 h 6,3 km/h (2 Bft)
19.07.2010 17:00 30,4 C 30,9 C 10,2 UV-I 4,8 C 35 % 24 % 100 % 1027,4 hPa 0,0 l/m 3,4 km/h (1 Bft) 0,87 h 5,9 km/h (2 Bft)
19.07.2010 18:00 29,8 C 29,9 C 3,6 UV-I 2,4 C 34 % 25 % 63 % 1025,4 hPa 0,0 l/m 2,8 km/h (1 Bft) 0,43 h 5,1 km/h (1 Bft)
19.07.2010 19:00 28,4 C 28,5 C 2,5 UV-I 0,0 C 38 % 29 % 0 % 1023,5 hPa 0,0 l/m 3,4 km/h (1 Bft) 0,00 h 4,7 km/h (1 Bft)
19.07.2010 20:00 27,7 C 27,6 C 1,3 UV-I 0,0 C 39 % 34 % 0 % 1022,8 hPa 0,0 l/m 4,4 km/h (1 Bft) 0,00 h 5,2 km/h (1 Bft)
19.07.2010 21:00 27,2 C 25,5 C 0,2 UV-I 0,0 C 40 % 42 % 0 % 1022,6 hPa 0,0 l/m 0,7 km/h (0 Bft) 0,00 h 1,2 km/h (1 Bft)
19.07.2010 22:00 26,5 C 22,5 C 0,0 UV-I 0,0 C 43 % 52 % 0 % 1022,7 hPa 0,0 l/m 0,0 km/h (0 Bft) 0,00 h 0,0 km/h (0 Bft)
19.07.2010 23:00 26,1 C 20,6 C 0,0 UV-I 0,0 C 45 % 59 % 0 % 1022,4 hPa 0,0 l/m 0,0 km/h (0 Bft) 0,00 h 0,0 km/h (0 Bft)
20.07.2010 00:00 25,9 C 19,4 C 0,0 UV-I 0,0 C 46 % 64 % 0 % 1021,9 hPa 0,0 l/m 0,0 km/h (0 Bft) 0,00 h 0,0 km/h (0 Bft)
20.07.2010 01:00 25,6 C 18,3 C 0,0 UV-I 0,0 C 48 % 70 % 0 % 1021,5 hPa 0,0 l/m 0,0 km/h (0 Bft) 0,00 h 0,0 km/h (0 Bft)
20.07.2010 02:00 25,3 C 17,4 C 0,0 UV-I 0,0 C 48 % 74 % 0 % 1021,0 hPa 0,0 l/m 0,0 km/h (0 Bft) 0,00 h 0,0 km/h (0 Bft)
20.07.2010 03:00 25,1 C 17,5 C 0,0 UV-I 0,0 C 48 % 72 % 0 % 1020,8 hPa 0,0 l/m 1,4 km/h (1 Bft) 0,00 h 3,1 km/h (1 Bft)
20.07.2010 04:00 24,8 C 17,2 C 0,0 UV-I 0,0 C 47 % 71 % 0 % 1020,5 hPa 0,0 l/m 1,1 km/h (1 Bft) 0,00 h 2,4 km/h (1 Bft)
20.07.2010 05:00 24,6 C 16,9 C 0,0 UV-I 0,0 C 48 % 72 % 0 % 1020,4 hPa 0,0 l/m 0,7 km/h (0 Bft) 0,00 h 1,8 km/h (1 Bft)
20.07.2010 06:00 24,6 C 16,8 C 0,2 UV-I 0,0 C 48 % 74 % 0 % 1020,3 hPa 0,0 l/m 1,3 km/h (1 Bft) 0,00 h 2,7 km/h (1 Bft)
20.07.2010 07:00 24,4 C 18,2 C 1,7 UV-I 0,0 C 49 % 71 % 0 % 1020,1 hPa 0,0 l/m 2,5 km/h (1 Bft) 0,00 h 5,3 km/h (1 Bft)
20.07.2010 08:00 24,5 C 20,3 C 3,4 UV-I 3,0 C 50 % 68 % 61 % 1019,8 hPa 0,0 l/m 4,6 km/h (1 Bft) 0,57 h 7,4 km/h (2 Bft)
20.07.2010 09:00 24,7 C 23,4 C 8,7 UV-I 5,0 C 51 % 59 % 100 % 1019,8 hPa 0,0 l/m 4,0 km/h (1 Bft) 0,97 h 6,8 km/h (2 Bft)
20.07.2010 10:00 25,0 C 26,1 C 16,0 UV-I 5,8 C 50 % 51 % 100 % 1019,5 hPa 0,0 l/m 4,6 km/h (1 Bft) 0,97 h 7,2 km/h (2 Bft)
20.07.2010 11:00 25,3 C 28,1 C 15,1 UV-I 5,2 C 48 % 40 % 100 % 1019,1 hPa 0,0 l/m 6,2 km/h (2 Bft) 0,93 h 8,7 km/h (2 Bft)
20.07.2010 12:00 25,7 C 29,8 C 11,1 UV-I 4,7 C 47 % 34 % 100 % 1018,7 hPa 0,0 l/m 6,8 km/h (2 Bft) 1,00 h 10,4 km/h (2 Bft)
20.07.2010 13:00 26,3 C 30,8 C 9,5 UV-I 4,3 C 46 % 32 % 100 % 1018,0 hPa 0,0 l/m 7,4 km/h (2 Bft) 0,93 h 10,4 km/h (2 Bft)
20.07.2010 14:00 27,4 C 31,5 C 9,5 UV-I 3,6 C 43 % 31 % 98 % 1017,6 hPa 0,0 l/m 8,5 km/h (2 Bft) 0,97 h 12,1 km/h (2 Bft)
20.07.2010 15:00 29,3 C 32,6 C 10,4 UV-I 3,6 C 40 % 28 % 98 % 1018,4 hPa 0,0 l/m 8,6 km/h (2 Bft) 0,87 h 12,1 km/h (2 Bft)
20.07.2010 16:00 30,4 C 32,3 C 9,4 UV-I 2,7 C 37 % 28 % 77 % 1018,3 hPa 0,0 l/m 5,7 km/h (1 Bft) 0,23 h 7,4 km/h (2 Bft)
20.07.2010 17:00 30,4 C 32,4 C 8,8 UV-I 3,1 C 37 % 28 % 87 % 1016,7 hPa 0,0 l/m 6,6 km/h (2 Bft) 0,60 h 9,1 km/h (2 Bft)
20.07.2010 18:00 30,2 C 31,8 C 4,0 UV-I 1,6 C 37 % 29 % 46 % 1015,5 hPa 0,0 l/m 6,0 km/h (2 Bft) 0,20 h 8,3 km/h (2 Bft)
20.07.2010 19:00 29,2 C 30,6 C 2,7 UV-I 0,0 C 38 % 32 % 0 % 1014,0 hPa 0,0 l/m 5,2 km/h (1 Bft) 0,00 h 7,9 km/h (2 Bft)
20.07.2010 20:00 28,6 C 29,3 C 1,2 UV-I 0,0 C 39 % 34 % 0 % 1013,4 hPa 0,0 l/m 2,4 km/h (1 Bft) 0,00 h 2,8 km/h (1 Bft)
20.07.2010 21:00 28,1 C 27,1 C 0,1 UV-I 0,0 C 41 % 41 % 0 % 1013,1 hPa 0,0 l/m 0,0 km/h (0 Bft) 0,00 h 0,1 km/h (0 Bft)
20.07.2010 22:00 27,5 C 24,7 C 0,0 UV-I 0,0 C 43 % 47 % 0 % 1012,8 hPa 0,0 l/m 0,2 km/h (0 Bft) 0,00 h 0,7 km/h (0 Bft)
20.07.2010 23:00 27,1 C 23,7 C 0,0 UV-I 0,0 C 44 % 49 % 0 % 1012,6 hPa 0,0 l/m 0,5 km/h (0 Bft) 0,00 h 0,9 km/h (0 Bft)
21.07.2010 00:00 26,8 C 22,8 C 0,0 UV-I 0,0 C 44 % 51 % 0 % 1012,2 hPa 0,0 l/m 1,2 km/h (1 Bft) 0,00 h 3,4 km/h (1 Bft)
21.07.2010 01:00 26,5 C 21,8 C 0,0 UV-I 0,0 C 45 % 54 % 0 % 1011,8 hPa 0,0 l/m 1,6 km/h (1 Bft) 0,00 h 3,2 km/h (1 Bft)
21.07.2010 02:00 26,2 C 20,9 C 0,0 UV-I 0,0 C 45 % 58 % 0 % 1011,2 hPa 0,0 l/m 1,8 km/h (1 Bft) 0,00 h 3,6 km/h (1 Bft)
21.07.2010 03:00 26,0 C 20,3 C 0,0 UV-I 0,0 C 46 % 60 % 0 % 1010,6 hPa 0,0 l/m 1,8 km/h (1 Bft) 0,00 h 4,3 km/h (1 Bft)
21.07.2010 04:00 25,8 C 19,5 C 0,0 UV-I 0,0 C 46 % 64 % 0 % 1010,1 hPa 0,0 l/m 2,1 km/h (1 Bft) 0,00 h 3,4 km/h (1 Bft)
21.07.2010 05:00 25,6 C 18,8 C 0,0 UV-I 0,0 C 47 % 67 % 0 % 1009,8 hPa 0,0 l/m 2,6 km/h (1 Bft) 0,00 h 4,3 km/h (1 Bft)
21.07.2010 06:00 25,4 C 18,7 C 0,4 UV-I 0,0 C 47 % 67 % 0 % 1009,4 hPa 0,0 l/m 2,3 km/h (1 Bft) 0,00 h 4,5 km/h (1 Bft)
21.07.2010 07:00 25,3 C 19,5 C 1,7 UV-I 0,0 C 48 % 67 % 0 % 1009,2 hPa 0,0 l/m 3,8 km/h (1 Bft) 0,00 h 5,6 km/h (1 Bft)
21.07.2010 08:00 25,4 C 21,8 C 3,6 UV-I 3,4 C 49 % 63 % 68 % 1009,4 hPa 0,0 l/m 4,3 km/h (1 Bft) 0,53 h 6,5 km/h (2 Bft)
21.07.2010 09:00 25,8 C 25,1 C 8,4 UV-I 5,4 C 49 % 55 % 100 % 1009,6 hPa 0,0 l/m 4,7 km/h (1 Bft) 1,00 h 8,2 km/h (2 Bft)
21.07.2010 10:00 26,1 C 27,4 C 12,8 UV-I 5,7 C 48 % 48 % 100 % 1010,1 hPa 0,0 l/m 4,0 km/h (1 Bft) 0,97 h 6,3 km/h (2 Bft)
21.07.2010 11:00 26,4 C 29,1 C 12,4 UV-I 6,1 C 48 % 45 % 100 % 1010,1 hPa 0,0 l/m 3,8 km/h (1 Bft) 0,87 h 6,4 km/h (2 Bft)
21.07.2010 12:00 26,8 C 29,3 C 9,9 UV-I 4,6 C 48 % 45 % 100 % 1010,8 hPa 0,0 l/m 4,8 km/h (1 Bft) 0,87 h 8,0 km/h (2 Bft)
21.07.2010 13:00 27,2 C 30,8 C 10,0 UV-I 5,2 C 47 % 40 % 99 % 1010,9 hPa 0,0 l/m 5,7 km/h (1 Bft) 0,90 h 8,6 km/h (2 Bft)
21.07.2010 14:00 27,6 C 29,6 C 4,5 UV-I 1,5 C 46 % 41 % 42 % 1011,2 hPa 0,0 l/m 5,8 km/h (2 Bft) 0,03 h 8,2 km/h (2 Bft)
21.07.2010 15:00 27,6 C 28,2 C 2,2 UV-I 0,2 C 46 % 46 % 5 % 1011,5 hPa 0,0 l/m 5,0 km/h (1 Bft) 0,00 h 8,1 km/h (2 Bft)
21.07.2010 16:00 27,4 C 26,6 C 2,8 UV-I 0,3 C 47 % 51 % 8 % 1012,1 hPa 0,0 l/m 7,5 km/h (2 Bft) 0,00 h 11,0 km/h (2 Bft)
21.07.2010 17:00 27,3 C 25,2 C 1,3 UV-I 0,0 C 47 % 56 % 1 % 1012,5 hPa 0,0 l/m 3,9 km/h (1 Bft) 0,00 h 6,1 km/h (2 Bft)
21.07.2010 18:00 27,0 C 23,8 C 0,5 UV-I 0,0 C 48 % 63 % 0 % 1012,3 hPa 0,0 l/m 1,3 km/h (1 Bft) 0,00 h 2,4 km/h (1 Bft)
21.07.2010 19:00 26,8 C 22,7 C 0,6 UV-I 0,0 C 50 % 69 % 0 % 1012,3 hPa 0,0 l/m 0,9 km/h (0 Bft) 0,00 h 2,2 km/h (1 Bft)
21.07.2010 20:00 26,6 C 21,5 C 0,1 UV-I 0,0 C 51 % 78 % 0 % 1012,6 hPa 1,3 l/m 2,6 km/h (1 Bft) 0,00 h 4,6 km/h (1 Bft)
21.07.2010 21:00 26,4 C 20,1 C 0,0 UV-I 0,0 C 53 % 87 % 0 % 1013,1 hPa 0,2 l/m 2,3 km/h (1 Bft) 0,00 h 4,3 km/h (1 Bft)
21.07.2010 22:00 26,2 C 19,7 C 0,0 UV-I 0,0 C 54 % 90 % 0 % 1013,2 hPa 0,0 l/m 2,0 km/h (1 Bft) 0,00 h 3,3 km/h (1 Bft)
21.07.2010 23:00 26,1 C 19,5 C 0,0 UV-I 0,0 C 55 % 91 % 0 % 1013,3 hPa 0,0 l/m 1,2 km/h (1 Bft) 0,00 h 3,1 km/h (1 Bft)
22.07.2010 00:00 26,0 C 19,3 C 0,0 UV-I 0,0 C 55 % 91 % 0 % 1013,4 hPa 0,0 l/m 1,2 km/h (1 Bft) 0,00 h 2,9 km/h (1 Bft)
22.07.2010 01:00 25,9 C 19,4 C 0,0 UV-I 0,0 C 56 % 91 % 0 % 1013,5 hPa 0,0 l/m 1,6 km/h (1 Bft) 0,00 h 4,2 km/h (1 Bft)
22.07.2010 02:00 25,8 C 19,3 C 0,0 UV-I 0,0 C 56 % 87 % 0 % 1013,8 hPa 0,0 l/m 1,4 km/h (1 Bft) 0,00 h 3,5 km/h (1 Bft)
22.07.2010 03:00 25,7 C 19,1 C 0,0 UV-I 0,0 C 56 % 86 % 0 % 1014,2 hPa 0,0 l/m 2,6 km/h (1 Bft) 0,00 h 4,8 km/h (1 Bft)
22.07.2010 04:00 25,6 C 19,3 C 0,0 UV-I 0,0 C 56 % 86 % 0 % 1014,7 hPa 0,0 l/m 0,8 km/h (0 Bft) 0,00 h 2,6 km/h (1 Bft)
22.07.2010 05:00 25,5 C 19,1 C 0,0 UV-I 0,0 C 57 % 86 % 0 % 1015,1 hPa 0,0 l/m 0,3 km/h (0 Bft) 0,00 h 0,3 km/h (0 Bft)
22.07.2010 06:00 25,4 C 18,7 C 0,2 UV-I 0,0 C 57 % 86 % 0 % 1015,1 hPa 0,0 l/m 0,1 km/h (0 Bft) 0,00 h 0,7 km/h (0 Bft)
22.07.2010 07:00 25,4 C 18,6 C 0,6 UV-I 0,0 C 57 % 86 % 0 % 1015,4 hPa 0,0 l/m 0,0 km/h (0 Bft) 0,00 h 0,9 km/h (0 Bft)
22.07.2010 08:00 25,5 C 19,0 C 1,3 UV-I 0,8 C 56 % 84 % 22 % 1015,9 hPa 0,0 l/m 0,5 km/h (0 Bft) 0,00 h 1,1 km/h (1 Bft)
22.07.2010 09:00 25,7 C 19,6 C 2,4 UV-I 1,5 C 56 % 80 % 43 % 1016,3 hPa 0,0 l/m 0,4 km/h (0 Bft) 0,00 h 0,7 km/h (0 Bft)
22.07.2010 10:00 25,8 C 19,9 C 1,8 UV-I 0,6 C 55 % 76 % 17 % 1017,0 hPa 0,0 l/m 0,1 km/h (0 Bft) 0,00 h 0,2 km/h (0 Bft)
22.07.2010 11:00 25,7 C 19,9 C 1,2 UV-I 0,2 C 55 % 75 % 6 % 1017,5 hPa 0,0 l/m 0,6 km/h (0 Bft) 0,00 h 2,3 km/h (1 Bft)
22.07.2010 12:00 25,7 C 20,1 C 2,2 UV-I 0,5 C 55 % 75 % 13 % 1017,6 hPa 0,0 l/m 1,2 km/h (1 Bft) 0,00 h 2,2 km/h (1 Bft)
22.07.2010 13:00 25,8 C 20,2 C 4,2 UV-I 1,7 C 54 % 74 % 47 % 1017,9 hPa 0,0 l/m 0,6 km/h (0 Bft) 0,10 h 1,4 km/h (1 Bft)
22.07.2010 14:00 26,2 C 21,4 C 6,2 UV-I 3,1 C 54 % 73 % 86 % 1018,0 hPa 0,0 l/m 3,0 km/h (1 Bft) 0,50 h 4,6 km/h (1 Bft)
22.07.2010 15:00 26,8 C 22,5 C 6,9 UV-I 2,9 C 53 % 71 % 84 % 1018,1 hPa 0,0 l/m 5,8 km/h (2 Bft) 0,50 h 8,7 km/h (2 Bft)
22.07.2010 16:00 27,1 C 23,0 C 4,4 UV-I 1,8 C 52 % 71 % 52 % 1018,1 hPa 0,0 l/m 4,3 km/h (1 Bft) 0,00 h 6,6 km/h (2 Bft)
22.07.2010 17:00 27,0 C 23,2 C 3,4 UV-I 1,3 C 52 % 71 % 36 % 1017,7 hPa 0,0 l/m 3,4 km/h (1 Bft) 0,00 h 4,2 km/h (1 Bft)
22.07.2010 18:00 26,8 C 23,3 C 2,2 UV-I 0,8 C 53 % 68 % 23 % 1017,4 hPa 0,0 l/m 1,8 km/h (1 Bft) 0,00 h 2,9 km/h (1 Bft)
22.07.2010 19:00 26,6 C 23,0 C 1,4 UV-I 0,2 C 53 % 65 % 5 % 1017,3 hPa 0,0 l/m 1,2 km/h (1 Bft) 0,00 h 1,5 km/h (1 Bft)
22.07.2010 20:00 26,3 C 22,0 C 0,5 UV-I 0,0 C 53 % 62 % 0 % 1017,5 hPa 0,0 l/m 0,0 km/h (0 Bft) 0,00 h 0,3 km/h (0 Bft)
22.07.2010 21:00 26,0 C 20,8 C 0,0 UV-I 0,0 C 53 % 66 % 0 % 1018,0 hPa 0,0 l/m 0,0 km/h (0 Bft) 0,00 h 0,0 km/h (0 Bft)
22.07.2010 22:00 25,7 C 19,1 C 0,0 UV-I 0,0 C 54 % 73 % 0 % 1018,6 hPa 0,0 l/m 0,0 km/h (0 Bft) 0,00 h 0,0 km/h (0 Bft)
22.07.2010 23:00 25,4 C 17,5 C 0,0 UV-I 0,0 C 55 % 78 % 0 % 1019,2 hPa 0,0 l/m 0,0 km/h (0 Bft) 0,00 h 0,0 km/h (0 Bft)
23.07.2010 00:00 25,2 C 17,1 C 0,0 UV-I 0,0 C 55 % 83 % 0 % 1019,5 hPa 0,0 l/m 0,0 km/h (0 Bft) 0,00 h 0,0 km/h (0 Bft)
23.07.2010 01:00 24,9 C 16,5 C 0,0 UV-I 0,0 C 56 % 86 % 0 % 1019,5 hPa 0,0 l/m 0,0 km/h (0 Bft) 0,00 h 0,0 km/h (0 Bft)
23.07.2010 02:00 24,7 C 15,6 C 0,0 UV-I 0,0 C 57 % 88 % 0 % 1019,7 hPa 0,0 l/m 0,0 km/h (0 Bft) 0,00 h 0,0 km/h (0 Bft)
23.07.2010 03:00 24,5 C 14,9 C 0,0 UV-I 0,0 C 57 % 90 % 0 % 1019,6 hPa 0,0 l/m 0,0 km/h (0 Bft) 0,00 h 0,0 km/h (0 Bft)
23.07.2010 04:00 24,3 C 14,5 C 0,0 UV-I 0,0 C 57 % 91 % 0 % 1019,7 hPa 0,0 l/m 0,0 km/h (0 Bft) 0,00 h 0,0 km/h (0 Bft)
23.07.2010 05:00 24,1 C 13,9 C 0,0 UV-I 0,0 C 57 % 91 % 0 % 1019,7 hPa 0,0 l/m 0,0 km/h (0 Bft) 0,00 h 0,0 km/h (0 Bft)
23.07.2010 06:00 24,0 C 13,6 C 0,4 UV-I 0,0 C 57 % 92 % 0 % 1019,9 hPa 0,0 l/m 0,0 km/h (0 Bft) 0,00 h 0,0 km/h (0 Bft)
23.07.2010 07:00 23,9 C 14,5 C 1,5 UV-I 0,0 C 57 % 92 % 0 % 1020,2 hPa 0,0 l/m 0,1 km/h (0 Bft) 0,00 h 0,4 km/h (0 Bft)
23.07.2010 08:00 24,0 C 16,8 C 2,9 UV-I 2,9 C 57 % 87 % 50 % 1020,4 hPa 0,0 l/m 0,6 km/h (0 Bft) 0,43 h 2,3 km/h (1 Bft)
23.07.2010 09:00 24,1 C 20,2 C 8,8 UV-I 7,8 C 57 % 73 % 100 % 1020,3 hPa 0,0 l/m 1,8 km/h (1 Bft) 0,87 h 3,7 km/h (1 Bft)
23.07.2010 10:00 24,2 C 22,6 C 14,5 UV-I 7,8 C 56 % 57 % 100 % 1020,2 hPa 0,0 l/m 3,1 km/h (1 Bft) 0,70 h 5,1 km/h (1 Bft)
23.07.2010 11:00 24,4 C 23,8 C 14,1 UV-I 6,8 C 55 % 49 % 100 % 1020,1 hPa 0,0 l/m 6,2 km/h (2 Bft) 0,73 h 9,9 km/h (2 Bft)
23.07.2010 12:00 24,8 C 24,5 C 10,1 UV-I 6,4 C 54 % 48 % 100 % 1020,0 hPa 0,0 l/m 6,1 km/h (2 Bft) 1,00 h 8,1 km/h (2 Bft)
23.07.2010 13:00 25,5 C 25,5 C 8,9 UV-I 5,1 C 53 % 45 % 97 % 1019,9 hPa 0,0 l/m 5,1 km/h (1 Bft) 0,93 h 8,2 km/h (2 Bft)
23.07.2010 14:00 26,5 C 25,8 C 8,2 UV-I 4,6 C 50 % 43 % 98 % 1020,1 hPa 0,0 l/m 5,8 km/h (2 Bft) 1,00 h 9,1 km/h (2 Bft)
23.07.2010 15:00 27,0 C 24,5 C 3,1 UV-I 1,0 C 48 % 47 % 28 % 1020,1 hPa 0,0 l/m 8,8 km/h (2 Bft) 0,03 h 13,3 km/h (3 Bft)
23.07.2010 16:00 26,4 C 19,4 C 0,6 UV-I 0,0 C 49 % 68 % 0 % 1020,5 hPa 0,1 l/m 8,5 km/h (2 Bft) 0,00 h 11,9 km/h (2 Bft)
23.07.2010 17:00 25,7 C 18,0 C 1,5 UV-I 0,0 C 51 % 82 % 0 % 1020,7 hPa 0,4 l/m 4,7 km/h (1 Bft) 0,00 h 6,9 km/h (2 Bft)
23.07.2010 18:00 25,5 C 18,7 C 2,5 UV-I 0,4 C 53 % 82 % 11 % 1020,7 hPa 0,0 l/m 1,3 km/h (1 Bft) 0,00 h 2,5 km/h (1 Bft)
23.07.2010 19:00 25,6 C 20,1 C 1,9 UV-I 0,7 C 53 % 75 % 19 % 1020,8 hPa 0,0 l/m 2,7 km/h (1 Bft) 0,00 h 5,7 km/h (1 Bft)
23.07.2010 20:00 25,6 C 20,4 C 0,7 UV-I 0,0 C 53 % 71 % 0 % 1021,1 hPa 0,0 l/m 1,4 km/h (1 Bft) 0,00 h 2,9 km/h (1 Bft)
23.07.2010 21:00 25,3 C 19,8 C 0,1 UV-I 0,0 C 53 % 71 % 0 % 1021,4 hPa 0,0 l/m 0,5 km/h (0 Bft) 0,00 h 1,9 km/h (1 Bft)
23.07.2010 22:00 25,1 C 18,8 C 0,0 UV-I 0,0 C 54 % 71 % 0 % 1021,9 hPa 0,0 l/m 0,6 km/h (0 Bft) 0,00 h 1,9 km/h (1 Bft)
23.07.2010 23:00 24,9 C 18,1 C 0,0 UV-I 0,0 C 54 % 76 % 0 % 1022,4 hPa 0,0 l/m 1,9 km/h (1 Bft) 0,00 h 4,8 km/h (1 Bft)
24.07.2010 00:00 24,9 C 17,3 C 0,0 UV-I 0,0 C 54 % 80 % 0 % 1022,9 hPa 0,0 l/m 2,7 km/h (1 Bft) 0,00 h 5,7 km/h (1 Bft)
24.07.2010 01:00 24,8 C 16,4 C 0,0 UV-I 0,0 C 54 % 83 % 0 % 1022,8 hPa 0,0 l/m 1,8 km/h (1 Bft) 0,00 h 1,2 km/h (1 Bft)
24.07.2010 02:00 24,7 C 16,1 C 0,0 UV-I 0,0 C 55 % 85 % 0 % 1023,3 hPa 0,0 l/m 1,9 km/h (1 Bft) 0,00 h 3,4 km/h (1 Bft)
24.07.2010 03:00 24,4 C 15,4 C 0,0 UV-I 0,0 C 55 % 86 % 0 % 1023,3 hPa 0,0 l/m 0,6 km/h (0 Bft) 0,00 h 1,0 km/h (0 Bft)
24.07.2010 04:00 24,2 C 15,2 C 0,0 UV-I 0,0 C 56 % 88 % 0 % 1023,6 hPa 0,0 l/m 1,4 km/h (1 Bft) 0,00 h 1,7 km/h (1 Bft)
24.07.2010 05:00 24,1 C 14,9 C 0,0 UV-I 0,0 C 56 % 88 % 0 % 1023,7 hPa 0,0 l/m 1,2 km/h (1 Bft) 0,00 h 2,9 km/h (1 Bft)
24.07.2010 06:00 24,0 C 14,9 C 0,1 UV-I 0,0 C 56 % 89 % 0 % 1024,1 hPa 0,0 l/m 1,4 km/h (1 Bft) 0,00 h 2,0 km/h (1 Bft)
24.07.2010 07:00 24,0 C 15,2 C 0,3 UV-I 0,0 C 56 % 88 % 0 % 1024,5 hPa 0,0 l/m 2,5 km/h (1 Bft) 0,00 h 4,3 km/h (1 Bft)
24.07.2010 08:00 24,1 C 15,6 C 1,2 UV-I 0,4 C 56 % 88 % 11 % 1024,9 hPa 0,0 l/m 3,7 km/h (1 Bft) 0,00 h 6,4 km/h (2 Bft)
24.07.2010 09:00 24,4 C 16,5 C 3,5 UV-I 1,7 C 55 % 84 % 48 % 1025,1 hPa 0,0 l/m 6,5 km/h (2 Bft) 0,03 h 10,0 km/h (2 Bft)
24.07.2010 10:00 24,7 C 17,7 C 7,4 UV-I 4,0 C 54 % 74 % 86 % 1025,2 hPa 0,0 l/m 8,3 km/h (2 Bft) 0,67 h 12,0 km/h (2 Bft)
24.07.2010 11:00 24,9 C 18,5 C 8,5 UV-I 4,2 C 53 % 71 % 93 % 1025,2 hPa 0,0 l/m 6,1 km/h (2 Bft) 0,53 h 10,5 km/h (2 Bft)
24.07.2010 12:00 25,1 C 19,5 C 6,0 UV-I 3,8 C 52 % 61 % 94 % 1025,2 hPa 0,0 l/m 6,5 km/h (2 Bft) 0,53 h 10,6 km/h (2 Bft)
24.07.2010 13:00 25,3 C 20,4 C 6,6 UV-I 3,5 C 51 % 53 % 87 % 1025,3 hPa 0,0 l/m 8,2 km/h (2 Bft) 0,40 h 10,1 km/h (2 Bft)
24.07.2010 14:00 26,0 C 21,4 C 7,1 UV-I 3,6 C 48 % 49 % 94 % 1025,5 hPa 0,0 l/m 8,5 km/h (2 Bft) 0,43 h 12,2 km/h (2 Bft)
24.07.2010 15:00 27,3 C 22,4 C 8,3 UV-I 4,4 C 44 % 42 % 99 % 1026,8 hPa 0,0 l/m 10,6 km/h (2 Bft) 0,40 h 12,6 km/h (3 Bft)
24.07.2010 16:00 28,5 C 22,2 C 9,4 UV-I 3,6 C 40 % 41 % 91 % 1027,2 hPa 0,0 l/m 10,6 km/h (2 Bft) 0,33 h 10,5 km/h (2 Bft)
24.07.2010 17:00 29,1 C 22,3 C 8,3 UV-I 4,1 C 39 % 39 % 96 % 1027,6 hPa 0,0 l/m 10,3 km/h (2 Bft) 0,37 h 11,7 km/h (2 Bft)
24.07.2010 18:00 28,4 C 21,6 C 3,5 UV-I 2,7 C 39 % 40 % 67 % 1025,7 hPa 0,0 l/m 7,8 km/h (2 Bft) 0,20 h 8,0 km/h (2 Bft)
24.07.2010 19:00 27,2 C 20,9 C 2,3 UV-I 0,0 C 41 % 41 % 0 % 1023,9 hPa 0,0 l/m 6,6 km/h (2 Bft) 0,00 h 6,8 km/h (2 Bft)
24.07.2010 20:00 26,4 C 20,1 C 1,0 UV-I 0,0 C 42 % 43 % 0 % 1023,6 hPa 0,0 l/m 3,8 km/h (1 Bft) 0,00 h 6,8 km/h (2 Bft)
24.07.2010 21:00 25,9 C 18,3 C 0,1 UV-I 0,0 C 43 % 48 % 0 % 1023,7 hPa 0,0 l/m 0,4 km/h (0 Bft) 0,00 h 0,2 km/h (0 Bft)
24.07.2010 22:00 25,3 C 16,3 C 0,0 UV-I 0,0 C 44 % 53 % 0 % 1023,6 hPa 0,0 l/m 0,0 km/h (0 Bft) 0,00 h 0,0 km/h (0 Bft)
24.07.2010 23:00 24,8 C 14,7 C 0,0 UV-I 0,0 C 45 % 59 % 0 % 1023,6 hPa 0,0 l/m 0,0 km/h (0 Bft) 0,00 h 0,0 km/h (0 Bft)
25.07.2010 00:00 24,3 C 13,4 C 0,0 UV-I 0,0 C 46 % 64 % 0 % 1023,4 hPa 0,0 l/m 0,0 km/h (0 Bft) 0,00 h 0,0 km/h (0 Bft)
25.07.2010 01:00 24,0 C 12,6 C 0,0 UV-I 0,0 C 47 % 70 % 0 % 1022,8 hPa 0,0 l/m 0,0 km/h (0 Bft) 0,00 h 0,0 km/h (0 Bft)
25.07.2010 02:00 23,4 C 11,7 C 0,0 UV-I 0,0 C 47 % 74 % 0 % 1022,5 hPa 0,0 l/m 0,0 km/h (0 Bft) 0,00 h 0,0 km/h (0 Bft)
25.07.2010 03:00 23,3 C 11,1 C 0,0 UV-I 0,0 C 48 % 77 % 0 % 1022,0 hPa 0,0 l/m 0,0 km/h (0 Bft) 0,00 h 0,0 km/h (0 Bft)
25.07.2010 04:00 23,2 C 10,7 C 0,0 UV-I 0,0 C 48 % 81 % 0 % 1021,4 hPa 0,0 l/m 0,0 km/h (0 Bft) 0,00 h 0,0 km/h (0 Bft)
25.07.2010 05:00 23,1 C 11,3 C 0,0 UV-I 0,0 C 49 % 83 % 0 % 1021,2 hPa 0,0 l/m 0,0 km/h (0 Bft) 0,00 h 0,0 km/h (0 Bft)
25.07.2010 06:00 23,0 C 12,2 C 0,0 UV-I 0,0 C 49 % 81 % 0 % 1021,1 hPa 0,0 l/m 0,0 km/h (0 Bft) 0,00 h 0,2 km/h (0 Bft)
25.07.2010 07:00 23,1 C 13,0 C 0,5 UV-I 0,5 C 50 % 80 % 14 % 1020,8 hPa 0,0 l/m 0,5 km/h (0 Bft) 0,00 h 1,6 km/h (1 Bft)
25.07.2010 08:00 23,2 C 14,5 C 1,3 UV-I 1,0 C 50 % 76 % 28 % 1020,4 hPa 0,0 l/m 3,4 km/h (1 Bft) 0,00 h 5,9 km/h (2 Bft)
25.07.2010 09:00 23,3 C 15,7 C 1,5 UV-I 0,8 C 49 % 69 % 24 % 1020,1 hPa 0,0 l/m 2,4 km/h (1 Bft) 0,00 h 5,1 km/h (1 Bft)
25.07.2010 10:00 23,5 C 16,9 C 4,3 UV-I 1,8 C 48 % 67 % 47 % 1020,1 hPa 0,0 l/m 3,0 km/h (1 Bft) 0,17 h 5,1 km/h (1 Bft)
25.07.2010 11:00 23,9 C 19,1 C 10,7 UV-I 5,7 C 48 % 62 % 100 % 1019,9 hPa 0,0 l/m 4,5 km/h (1 Bft) 0,97 h 7,7 km/h (2 Bft)
25.07.2010 12:00 24,1 C 21,2 C 10,0 UV-I 5,7 C 47 % 57 % 100 % 1019,5 hPa 0,0 l/m 5,7 km/h (1 Bft) 0,97 h 8,6 km/h (2 Bft)
25.07.2010 13:00 24,6 C 22,7 C 8,8 UV-I 5,6 C 46 % 53 % 96 % 1019,3 hPa 0,0 l/m 5,5 km/h (1 Bft) 0,87 h 7,5 km/h (2 Bft)
25.07.2010 14:00 24,8 C 21,1 C 1,1 UV-I 0,2 C 47 % 60 % 6 % 1018,8 hPa 0,0 l/m 4,8 km/h (1 Bft) 0,00 h 8,3 km/h (2 Bft)
25.07.2010 15:00 24,3 C 19,4 C 1,5 UV-I 0,1 C 51 % 72 % 4 % 1018,7 hPa 1,6 l/m 2,6 km/h (1 Bft) 0,00 h 4,0 km/h (1 Bft)
25.07.2010 16:00 24,0 C 17,5 C 1,5 UV-I 0,0 C 55 % 85 % 0 % 1019,1 hPa 1,2 l/m 2,1 km/h (1 Bft) 0,00 h 3,1 km/h (1 Bft)
25.07.2010 17:00 23,8 C 17,1 C 1,4 UV-I 0,0 C 56 % 87 % 0 % 1018,8 hPa 0,6 l/m 1,9 km/h (1 Bft) 0,00 h 3,5 km/h (1 Bft)
25.07.2010 18:00 23,7 C 16,7 C 1,0 UV-I 0,0 C 57 % 89 % 0 % 1018,7 hPa 0,5 l/m 1,0 km/h (0 Bft) 0,00 h 1,8 km/h (1 Bft)
25.07.2010 19:00 23,5 C 16,3 C 0,1 UV-I 0,0 C 59 % 91 % 0 % 1018,3 hPa 0,4 l/m 0,2 km/h (0 Bft) 0,00 h 0,0 km/h (0 Bft)
25.07.2010 20:00 23,3 C 16,0 C 0,0 UV-I 0,0 C 60 % 91 % 0 % 1018,2 hPa 0,3 l/m 0,1 km/h (0 Bft) 0,00 h 0,2 km/h (0 Bft)
25.07.2010 21:00 23,2 C 16,0 C 0,0 UV-I 0,0 C 60 % 92 % 0 % 1018,2 hPa 0,4 l/m 0,0 km/h (0 Bft) 0,00 h 0,0 km/h (0 Bft)
25.07.2010 22:00 23,2 C 16,0 C 0,0 UV-I 0,0 C 61 % 93 % 0 % 1018,0 hPa 0,0 l/m 0,0 km/h (0 Bft) 0,00 h 0,0 km/h (0 Bft)
25.07.2010 23:00 23,2 C 16,0 C 0,0 UV-I 0,0 C 61 % 93 % 0 % 1018,0 hPa 0,3 l/m 0,1 km/h (0 Bft) 0,00 h 0,3 km/h (0 Bft)
Min-Datum _ 25.07.10 25.07.10 19.07.10 19.07.10 19.07.10 19.07.10 19.07.10 21.07.10 - 19.07.10 - 19.07.10
_ Min-Zeit 06:12 04:24 00:00 00:00 18:10 16:00 00:00 07:08 - 00:00 - 00:00
Minimum _ 23,0 C 10,6 C 0,0 UV-I 0,0 C 33 % 23 % 0 % 1009,1 hPa - 0,0 km/h (0 Bft) - 0,0 km/h (0 Bft)
Max-Datum _ 20.07.10 20.07.10 20.07.10 23.07.10 25.07.10 25.07.10 19.07.10 19.07.10 25.07.10 24.07.10 19.07.10 23.07.10
_ Max-Zeit 16:26 15:50 10:22 09:34 22:12 23:22 08:28 16:08 15:28 15:57 08:28 15:40
Maximum _ 30,5 C 32,9 C 17,3 UV-I 8,8 C 61 % 94 % 100 % 1029,2 hPa 1,6 l/m 14,5 km/h
W-SW (3 Bft)
0,03 h 28,6 km/h
SW (4 Bft)
Durchschnitt _ 25,5 C 20,5 C 3,2 UV-I 1,5 C 50 % 65 % 30 % 1019,6 hPa #7,2 l/m 2,7 km/h (1 Bft) #36:36 h 4,2 km/h (1 Bft)
© 2012 W. Hausmann